sensor_id;sensor_type;location;lat;lon;timestamp;P1;durP1;ratioP1;P2;durP2;ratioP2
67164;SDS011;54093;50.014;19.984;2023-04-03T00:00:13;4.22;;;1.35;;
67164;SDS011;54093;50.014;19.984;2023-04-03T00:09:54;1.88;;;1.77;;
67164;SDS011;54093;50.014;19.984;2023-04-03T00:19:15;1.58;;;1.48;;
67164;SDS011;54093;50.014;19.984;2023-04-03T00:28:36;1.30;;;1.30;;
67164;SDS011;54093;50.014;19.984;2023-04-03T00:37:57;1.90;;;1.80;;
67164;SDS011;54093;50.014;19.984;2023-04-03T00:47:18;2.35;;;1.60;;
67164;SDS011;54093;50.014;19.984;2023-04-03T00:56:39;1.65;;;1.65;;
67164;SDS011;54093;50.014;19.984;2023-04-03T01:06:00;1.50;;;1.50;;
67164;SDS011;54093;50.014;19.984;2023-04-03T01:15:23;2.20;;;2.08;;
67164;SDS011;54093;50.014;19.984;2023-04-03T01:24:45;1.35;;;1.35;;
67164;SDS011;54093;50.014;19.984;2023-04-03T01:34:07;1.65;;;1.55;;
67164;SDS011;54093;50.014;19.984;2023-04-03T01:43:28;2.13;;;2.03;;
67164;SDS011;54093;50.014;19.984;2023-04-03T01:52:49;1.27;;;1.27;;
67164;SDS011;54093;50.014;19.984;2023-04-03T02:02:10;1.35;;;1.25;;
67164;SDS011;54093;50.014;19.984;2023-04-03T02:11:32;1.77;;;1.67;;
67164;SDS011;54093;50.014;19.984;2023-04-03T02:20:54;1.40;;;1.40;;
67164;SDS011;54093;50.014;19.984;2023-04-03T02:30:15;1.73;;;1.63;;
67164;SDS011;54093;50.014;19.984;2023-04-03T02:39:36;1.50;;;1.40;;
67164;SDS011;54093;50.014;19.984;2023-04-03T02:48:57;1.23;;;1.23;;
67164;SDS011;54093;50.014;19.984;2023-04-03T02:58:18;1.23;;;1.23;;
67164;SDS011;54093;50.014;19.984;2023-04-03T03:07:39;1.05;;;1.05;;
67164;SDS011;54093;50.014;19.984;2023-04-03T03:16:59;0.90;;;0.90;;
67164;SDS011;54093;50.014;19.984;2023-04-03T03:26:20;1.02;;;1.02;;
67164;SDS011;54093;50.014;19.984;2023-04-03T03:35:41;1.52;;;1.30;;
67164;SDS011;54093;50.014;19.984;2023-04-03T03:45:02;1.23;;;1.13;;
67164;SDS011;54093;50.014;19.984;2023-04-03T03:54:23;1.25;;;1.23;;
67164;SDS011;54093;50.014;19.984;2023-04-03T04:03:44;1.13;;;1.13;;
67164;SDS011;54093;50.014;19.984;2023-04-03T04:13:05;1.25;;;1.25;;
67164;SDS011;54093;50.014;19.984;2023-04-03T04:22:26;1.50;;;1.40;;
67164;SDS011;54093;50.014;19.984;2023-04-03T04:31:47;0.82;;;0.82;;
67164;SDS011;54093;50.014;19.984;2023-04-03T04:41:08;1.15;;;1.10;;
67164;SDS011;54093;50.014;19.984;2023-04-03T04:50:29;1.10;;;1.02;;
67164;SDS011;54093;50.014;19.984;2023-04-03T04:59:49;1.60;;;1.52;;
67164;SDS011;54093;50.014;19.984;2023-04-03T05:09:10;1.52;;;1.40;;
67164;SDS011;54093;50.014;19.984;2023-04-03T05:18:31;1.30;;;1.30;;
67164;SDS011;54093;50.014;19.984;2023-04-03T05:27:52;1.25;;;1.25;;
67164;SDS011;54093;50.014;19.984;2023-04-03T05:37:13;1.50;;;1.40;;
67164;SDS011;54093;50.014;19.984;2023-04-03T05:46:35;2.90;;;2.63;;
67164;SDS011;54093;50.014;19.984;2023-04-03T05:56:01;1.38;;;1.38;;
67164;SDS011;54093;50.014;19.984;2023-04-03T06:05:22;2.05;;;1.63;;
67164;SDS011;54093;50.014;19.984;2023-04-03T06:14:44;2.65;;;1.20;;
67164;SDS011;54093;50.014;19.984;2023-04-03T06:24:07;1.23;;;1.23;;
67164;SDS011;54093;50.014;19.984;2023-04-03T06:33:28;1.30;;;1.30;;
67164;SDS011;54093;50.014;19.984;2023-04-03T06:42:49;1.10;;;1.08;;
67164;SDS011;54093;50.014;19.984;2023-04-03T06:52:10;1.10;;;1.10;;
67164;SDS011;54093;50.014;19.984;2023-04-03T07:01:32;1.52;;;1.33;;
67164;SDS011;54093;50.014;19.984;2023-04-03T07:10:54;1.58;;;1.48;;
67164;SDS011;54093;50.014;19.984;2023-04-03T07:20:15;1.60;;;1.50;;
67164;SDS011;54093;50.014;19.984;2023-04-03T07:29:36;2.20;;;1.00;;
67164;SDS011;54093;50.014;19.984;2023-04-03T07:38:57;3.80;;;1.35;;
67164;SDS011;54093;50.014;19.984;2023-04-03T07:48:19;2.80;;;1.40;;
67164;SDS011;54093;50.014;19.984;2023-04-03T07:57:41;0.70;;;0.70;;
67164;SDS011;54093;50.014;19.984;2023-04-03T08:07:03;1.27;;;1.27;;
67164;SDS011;54093;50.014;19.984;2023-04-03T08:16:24;6.15;;;1.38;;
67164;SDS011;54093;50.014;19.984;2023-04-03T08:25:48;1.25;;;1.25;;
67164;SDS011;54093;50.014;19.984;2023-04-03T08:35:09;1.20;;;1.20;;
67164;SDS011;54093;50.014;19.984;2023-04-03T08:54:12;1.60;;;1.50;;
67164;SDS011;54093;50.014;19.984;2023-04-03T09:03:42;2.15;;;1.55;;
67164;SDS011;54093;50.014;19.984;2023-04-03T09:13:05;1.63;;;1.27;;
67164;SDS011;54093;50.014;19.984;2023-04-03T09:22:33;1.13;;;1.08;;
67164;SDS011;54093;50.014;19.984;2023-04-03T09:32:01;3.90;;;1.50;;
67164;SDS011;54093;50.014;19.984;2023-04-03T09:41:30;3.33;;;1.98;;
67164;SDS011;54093;50.014;19.984;2023-04-03T10:00:22;1.58;;;1.45;;
67164;SDS011;54093;50.014;19.984;2023-04-03T10:09:48;1.50;;;1.40;;
67164;SDS011;54093;50.014;19.984;2023-04-03T10:19:32;1.10;;;1.10;;
67164;SDS011;54093;50.014;19.984;2023-04-03T10:29:02;2.83;;;1.33;;
67164;SDS011;54093;50.014;19.984;2023-04-03T10:58:05;1.42;;;1.35;;
67164;SDS011;54093;50.014;19.984;2023-04-03T11:07:34;4.93;;;2.40;;
67164;SDS011;54093;50.014;19.984;2023-04-03T11:17:12;1.15;;;1.05;;
67164;SDS011;54093;50.014;19.984;2023-04-03T11:26:38;1.38;;;1.27;;
67164;SDS011;54093;50.014;19.984;2023-04-03T11:36:05;3.30;;;1.80;;
67164;SDS011;54093;50.014;19.984;2023-04-03T11:45:33;1.85;;;1.75;;
67164;SDS011;54093;50.014;19.984;2023-04-03T11:54:57;1.47;;;1.37;;
67164;SDS011;54093;50.014;19.984;2023-04-03T12:04:19;1.55;;;1.50;;
67164;SDS011;54093;50.014;19.984;2023-04-03T12:51:53;1.52;;;1.42;;
67164;SDS011;54093;50.014;19.984;2023-04-03T13:01:16;2.15;;;1.48;;
67164;SDS011;54093;50.014;19.984;2023-04-03T13:10:55;1.92;;;1.10;;
67164;SDS011;54093;50.014;19.984;2023-04-03T13:20:25;1.25;;;1.20;;
67164;SDS011;54093;50.014;19.984;2023-04-03T13:29:51;1.40;;;1.35;;
67164;SDS011;54093;50.014;19.984;2023-04-03T13:48:45;2.60;;;1.80;;
67164;SDS011;54093;50.014;19.984;2023-04-03T14:07:29;2.67;;;1.48;;
67164;SDS011;54093;50.014;19.984;2023-04-03T14:16:53;2.05;;;1.40;;
67164;SDS011;54093;50.014;19.984;2023-04-03T14:26:21;3.22;;;1.23;;
67164;SDS011;54093;50.014;19.984;2023-04-03T14:35:44;1.63;;;1.50;;
67164;SDS011;54093;50.014;19.984;2023-04-03T14:45:07;2.47;;;1.58;;
67164;SDS011;54093;50.014;19.984;2023-04-03T14:54:31;1.10;;;1.10;;
67164;SDS011;54093;50.014;19.984;2023-04-03T15:03:52;1.80;;;1.67;;
67164;SDS011;54093;50.014;19.984;2023-04-03T15:13:13;1.38;;;1.38;;
67164;SDS011;54093;50.014;19.984;2023-04-03T15:22:34;1.80;;;1.52;;
67164;SDS011;54093;50.014;19.984;2023-04-03T15:31:55;3.58;;;2.13;;
67164;SDS011;54093;50.014;19.984;2023-04-03T15:41:16;1.45;;;1.40;;
67164;SDS011;54093;50.014;19.984;2023-04-03T15:50:37;2.80;;;1.45;;
67164;SDS011;54093;50.014;19.984;2023-04-03T15:59:58;1.45;;;1.30;;
67164;SDS011;54093;50.014;19.984;2023-04-03T16:09:19;0.95;;;0.95;;
67164;SDS011;54093;50.014;19.984;2023-04-03T16:18:40;1.73;;;1.48;;
67164;SDS011;54093;50.014;19.984;2023-04-03T16:28:01;1.15;;;1.15;;
67164;SDS011;54093;50.014;19.984;2023-04-03T16:37:23;1.52;;;1.20;;
67164;SDS011;54093;50.014;19.984;2023-04-03T16:46:45;1.83;;;1.42;;
67164;SDS011;54093;50.014;19.984;2023-04-03T16:56:06;1.00;;;1.00;;
67164;SDS011;54093;50.014;19.984;2023-04-03T17:05:27;2.00;;;1.80;;
67164;SDS011;54093;50.014;19.984;2023-04-03T17:14:48;1.33;;;1.23;;
67164;SDS011;54093;50.014;19.984;2023-04-03T17:24:10;1.23;;;1.15;;
67164;SDS011;54093;50.014;19.984;2023-04-03T17:33:33;1.52;;;1.42;;
67164;SDS011;54093;50.014;19.984;2023-04-03T17:42:56;2.80;;;1.58;;
67164;SDS011;54093;50.014;19.984;2023-04-03T17:52:17;4.80;;;1.98;;
67164;SDS011;54093;50.014;19.984;2023-04-03T18:01:38;7.10;;;1.77;;
67164;SDS011;54093;50.014;19.984;2023-04-03T18:11:00;1.70;;;1.60;;
67164;SDS011;54093;50.014;19.984;2023-04-03T18:20:21;2.08;;;1.90;;
67164;SDS011;54093;50.014;19.984;2023-04-03T18:29:45;3.05;;;2.47;;
67164;SDS011;54093;50.014;19.984;2023-04-03T18:39:21;2.63;;;2.42;;
67164;SDS011;54093;50.014;19.984;2023-04-03T18:48:42;2.20;;;2.10;;
67164;SDS011;54093;50.014;19.984;2023-04-03T18:58:05;6.32;;;2.45;;
67164;SDS011;54093;50.014;19.984;2023-04-03T19:07:29;2.67;;;2.47;;
67164;SDS011;54093;50.014;19.984;2023-04-03T19:16:51;2.97;;;2.78;;
67164;SDS011;54093;50.014;19.984;2023-04-03T19:26:12;3.08;;;2.72;;
67164;SDS011;54093;50.014;19.984;2023-04-03T19:35:33;3.50;;;3.20;;
67164;SDS011;54093;50.014;19.984;2023-04-03T19:44:55;2.28;;;2.10;;
67164;SDS011;54093;50.014;19.984;2023-04-03T19:54:17;3.35;;;2.40;;
67164;SDS011;54093;50.014;19.984;2023-04-03T20:03:38;2.97;;;2.67;;
67164;SDS011;54093;50.014;19.984;2023-04-03T20:12:59;2.38;;;2.17;;
67164;SDS011;54093;50.014;19.984;2023-04-03T20:22:21;2.65;;;2.45;;
67164;SDS011;54093;50.014;19.984;2023-04-03T20:31:42;5.13;;;2.95;;
67164;SDS011;54093;50.014;19.984;2023-04-03T20:41:04;2.72;;;2.47;;
67164;SDS011;54093;50.014;19.984;2023-04-03T20:50:26;3.20;;;3.00;;
67164;SDS011;54093;50.014;19.984;2023-04-03T20:59:50;3.67;;;3.38;;
67164;SDS011;54093;50.014;19.984;2023-04-03T21:28:33;5.40;;;3.50;;
67164;SDS011;54093;50.014;19.984;2023-04-03T21:37:54;7.15;;;3.13;;
67164;SDS011;54093;50.014;19.984;2023-04-03T21:47:14;3.67;;;3.38;;
67164;SDS011;54093;50.014;19.984;2023-04-03T21:56:36;3.92;;;2.90;;
67164;SDS011;54093;50.014;19.984;2023-04-03T22:05:57;7.82;;;3.20;;
67164;SDS011;54093;50.014;19.984;2023-04-03T22:15:18;3.90;;;3.60;;
67164;SDS011;54093;50.014;19.984;2023-04-03T22:24:39;4.80;;;3.33;;
67164;SDS011;54093;50.014;19.984;2023-04-03T22:34:00;3.67;;;2.35;;
67164;SDS011;54093;50.014;19.984;2023-04-03T22:43:24;3.55;;;3.25;;
67164;SDS011;54093;50.014;19.984;2023-04-03T22:52:46;2.72;;;2.53;;
67164;SDS011;54093;50.014;19.984;2023-04-03T23:02:07;2.33;;;1.90;;
67164;SDS011;54093;50.014;19.984;2023-04-03T23:11:28;5.03;;;2.50;;
67164;SDS011;54093;50.014;19.984;2023-04-03T23:20:49;4.10;;;3.42;;
67164;SDS011;54093;50.014;19.984;2023-04-03T23:30:11;3.78;;;2.97;;
67164;SDS011;54093;50.014;19.984;2023-04-03T23:39:32;4.35;;;2.60;;
67164;SDS011;54093;50.014;19.984;2023-04-03T23:48:53;2.65;;;2.45;;
67164;SDS011;54093;50.014;19.984;2023-04-03T23:58:14;2.90;;;2.70;;
